Decoded Metar for LFRK (CAEN in FRANCE) (IATA:CFR) | Meteo·Mobile Aviation Weather
aviador You're here:

LFRK Decoded Metar

CAEN in FRANCE
Report Time2019-07-23 03:30:00
UTC Time2019-07-23 04:03:18
Flight Rules vfr VFR
WindCalm
Visibility9999 m
Phenomena:N/A
Clouds:N/A
CeilingNone
Temp15°C (ISA 0)
Dew Point15°C (100% RH)
QNH1019 hPa
Density Alt295 ft
Elevation220 ft
Report Wrong Elevation
Raw Report
LFRK 230330Z AUTO 00000KT CAVOK 15/15 Q1019=

Extra information for LFRK:More info

Metar Taf Metar & Taf Last 4 Metars F.Rules Stats Wind Profile Meteogram Temp Stats Airport Information Weather charts Add Link Nearby VenuesMetar ALERT Operation Metar Decoded Social comments